createdAt,value
2023-10-20T00:00:16.390Z,5.80
2023-10-20T00:01:39.829Z,5.50
2023-10-20T00:02:43.622Z,5.20
2023-10-20T00:03:47.178Z,5.20
2023-10-20T00:04:51.524Z,5.70
2023-10-20T00:05:55.207Z,4.80
2023-10-20T00:07:00.076Z,4.50
2023-10-20T00:08:05.214Z,5.10
2023-10-20T00:09:09.712Z,5.70
2023-10-20T00:10:12.960Z,5.00
2023-10-20T00:11:16.840Z,5.50
2023-10-20T00:12:21.049Z,5.10
2023-10-20T00:13:25.857Z,5.80
2023-10-20T00:14:30.239Z,5.10
2023-10-20T00:15:35.196Z,6.30
2023-10-20T00:16:39.600Z,5.50
2023-10-20T00:17:43.798Z,5.60
2023-10-20T00:18:47.573Z,4.60
2023-10-20T00:19:51.869Z,5.00
2023-10-20T00:20:55.387Z,5.10
2023-10-20T00:21:59.005Z,5.20
2023-10-20T00:23:02.739Z,4.90
2023-10-20T00:24:08.872Z,5.80
2023-10-20T00:25:12.620Z,5.70
2023-10-20T00:26:16.030Z,5.60
2023-10-20T00:27:19.632Z,5.50
2023-10-20T00:28:23.057Z,5.70
2023-10-20T00:29:26.554Z,5.60
2023-10-20T00:30:30.534Z,5.60
2023-10-20T00:31:34.057Z,5.60
2023-10-20T00:32:42.817Z,6.00
2023-10-20T00:33:50.777Z,5.60
2023-10-20T00:34:54.466Z,5.00
2023-10-20T00:35:57.695Z,4.80
2023-10-20T00:37:02.012Z,5.40
2023-10-20T00:38:07.001Z,4.60
2023-10-20T00:39:10.560Z,5.10
2023-10-20T00:40:16.302Z,5.20
2023-10-20T00:41:19.883Z,5.50
2023-10-20T00:42:23.869Z,5.70
2023-10-20T00:43:35.922Z,6.40
2023-10-20T00:44:39.890Z,5.70
2023-10-20T00:45:46.284Z,5.70
2023-10-20T00:46:50.205Z,5.80
2023-10-20T00:47:54.026Z,6.30
2023-10-20T00:48:58.990Z,6.60
2023-10-20T00:50:05.183Z,6.40
2023-10-20T00:51:10.653Z,5.70
2023-10-20T00:52:15.357Z,6.30
2023-10-20T00:53:19.665Z,6.00
2023-10-20T00:54:23.198Z,6.60
2023-10-20T00:55:27.411Z,6.80
2023-10-20T00:56:33.008Z,7.20
2023-10-20T00:57:37.430Z,6.60
2023-10-20T00:58:42.090Z,6.30
2023-10-20T00:59:45.641Z,6.80
2023-10-20T01:00:48.851Z,6.80
2023-10-20T01:01:52.858Z,6.30
2023-10-20T01:02:56.825Z,6.30
2023-10-20T01:04:00.845Z,5.80
2023-10-20T01:05:06.345Z,6.20
2023-10-20T01:06:11.475Z,5.60
2023-10-20T01:07:16.113Z,5.40
2023-10-20T01:08:20.093Z,5.70
2023-10-20T01:09:28.239Z,5.30
2023-10-20T01:10:31.632Z,6.10
2023-10-20T01:11:34.999Z,6.80
2023-10-20T01:12:38.449Z,6.40
2023-10-20T01:13:42.018Z,6.00
2023-10-20T01:14:45.238Z,6.30
2023-10-20T01:15:49.508Z,6.90
2023-10-20T01:16:52.956Z,6.10
2023-10-20T01:17:56.454Z,5.80
2023-10-20T01:19:01.837Z,5.90
2023-10-20T01:20:08.400Z,6.00
2023-10-20T01:21:12.028Z,6.10
2023-10-20T01:22:15.476Z,6.80
2023-10-20T01:23:19.161Z,6.80
2023-10-20T01:24:22.927Z,6.90
2023-10-20T01:25:27.506Z,6.80
2023-10-20T01:26:30.849Z,7.20
2023-10-20T01:27:34.590Z,7.40
2023-10-20T01:28:38.469Z,7.90
2023-10-20T01:29:41.980Z,7.70
2023-10-20T01:30:45.806Z,7.80
2023-10-20T01:31:49.178Z,8.30
2023-10-20T01:32:52.724Z,8.50
2023-10-20T01:33:56.577Z,7.40
2023-10-20T01:35:00.949Z,7.50
2023-10-20T01:36:06.081Z,7.50
2023-10-20T01:37:12.662Z,7.30
2023-10-20T01:38:16.612Z,7.30
2023-10-20T01:39:20.344Z,7.00
2023-10-20T01:40:24.253Z,7.40
2023-10-20T01:41:28.459Z,7.80
2023-10-20T01:42:31.932Z,7.50
2023-10-20T01:43:35.444Z,8.80
2023-10-20T01:44:38.784Z,8.20
2023-10-20T01:45:42.102Z,7.30
2023-10-20T01:46:50.158Z,8.10
2023-10-20T01:47:54.820Z,8.20
2023-10-20T01:48:58.415Z,7.40
2023-10-20T01:50:04.734Z,7.80
2023-10-20T01:51:08.490Z,8.20
2023-10-20T01:52:12.283Z,7.10
2023-10-20T01:53:15.643Z,6.80
2023-10-20T01:54:18.831Z,8.00
2023-10-20T01:55:23.046Z,7.40
2023-10-20T01:56:26.616Z,7.30
2023-10-20T01:57:30.456Z,7.10
2023-10-20T01:58:34.311Z,7.20
2023-10-20T01:59:37.820Z,6.90
2023-10-20T02:00:41.444Z,6.50
2023-10-20T02:01:45.680Z,6.40
2023-10-20T02:02:49.190Z,6.80
2023-10-20T02:03:52.840Z,7.10
2023-10-20T02:04:56.587Z,7.50
2023-10-20T02:06:00.560Z,7.60
2023-10-20T02:07:04.047Z,7.10
2023-10-20T02:08:09.283Z,6.80
2023-10-20T02:09:12.835Z,6.80
2023-10-20T02:10:18.715Z,6.30
2023-10-20T02:11:22.331Z,6.80
2023-10-20T02:12:25.920Z,6.70
2023-10-20T02:13:29.107Z,7.30
2023-10-20T02:14:35.239Z,7.50
2023-10-20T02:15:41.204Z,7.70
2023-10-20T02:16:44.942Z,7.60
2023-10-20T02:17:48.991Z,7.60
2023-10-20T02:18:53.079Z,7.40
2023-10-20T02:19:59.052Z,8.20
2023-10-20T02:21:05.614Z,7.90
2023-10-20T02:22:08.950Z,7.90
2023-10-20T02:23:12.804Z,6.90
2023-10-20T02:24:17.723Z,7.00
2023-10-20T02:25:21.705Z,7.30
2023-10-20T02:26:25.312Z,7.30
2023-10-20T02:27:29.389Z,6.70
2023-10-20T02:28:32.899Z,6.70
2023-10-20T02:29:36.971Z,6.80
2023-10-20T02:30:40.139Z,6.50
2023-10-20T02:31:43.973Z,7.60
2023-10-20T02:32:47.500Z,6.60
2023-10-20T02:33:52.496Z,6.90
2023-10-20T02:34:55.863Z,7.20
2023-10-20T02:35:59.493Z,7.50
2023-10-20T02:37:03.693Z,7.40
2023-10-20T02:38:07.388Z,7.30
2023-10-20T02:39:10.882Z,7.10
2023-10-20T02:40:14.534Z,6.80
2023-10-20T02:41:17.840Z,6.90
2023-10-20T02:42:21.398Z,6.30
2023-10-20T02:43:25.321Z,6.30
2023-10-20T02:44:31.045Z,6.50
2023-10-20T02:45:34.952Z,6.20
2023-10-20T02:46:39.416Z,6.50
2023-10-20T02:47:43.434Z,6.60
2023-10-20T02:48:47.189Z,6.90
2023-10-20T02:49:56.343Z,7.10
2023-10-20T02:51:08.195Z,6.50
2023-10-20T02:52:14.173Z,7.40
2023-10-20T02:53:19.694Z,7.60
2023-10-20T02:54:23.128Z,7.60
2023-10-20T02:55:28.065Z,6.90
2023-10-20T02:56:31.561Z,7.40
2023-10-20T02:57:37.702Z,7.80
2023-10-20T02:58:43.856Z,6.70
2023-10-20T02:59:48.896Z,7.00
2023-10-20T03:00:54.725Z,6.20
2023-10-20T03:01:58.213Z,6.40
2023-10-20T03:03:05.133Z,6.50
2023-10-20T03:04:09.993Z,6.30
2023-10-20T03:05:14.504Z,6.90
2023-10-20T03:06:21.643Z,6.60
2023-10-20T03:07:27.995Z,6.30
2023-10-20T03:08:32.008Z,6.40
2023-10-20T03:09:38.666Z,6.70
2023-10-20T03:10:42.118Z,6.00
2023-10-20T03:11:46.095Z,6.90
2023-10-20T03:12:49.870Z,6.10
2023-10-20T03:13:53.535Z,6.20
2023-10-20T03:14:57.473Z,6.50
2023-10-20T03:16:01.199Z,6.80
2023-10-20T03:17:05.518Z,6.60
2023-10-20T03:18:09.444Z,7.10
2023-10-20T03:19:12.684Z,7.00
2023-10-20T03:20:18.081Z,7.60
2023-10-20T03:21:23.059Z,7.00
2023-10-20T03:22:26.764Z,7.30
2023-10-20T03:23:30.837Z,7.00
2023-10-20T03:24:35.663Z,7.50
2023-10-20T03:25:39.464Z,7.10
2023-10-20T03:26:43.581Z,7.10
2023-10-20T03:27:47.251Z,7.10
2023-10-20T03:28:50.371Z,7.20
2023-10-20T03:29:53.734Z,6.90
2023-10-20T03:30:57.746Z,7.10
2023-10-20T03:32:03.770Z,6.80
2023-10-20T03:33:09.227Z,6.30
2023-10-20T03:34:12.478Z,6.60
2023-10-20T03:35:16.934Z,6.80
2023-10-20T03:36:24.044Z,6.80
2023-10-20T03:37:28.097Z,7.30
2023-10-20T03:38:31.458Z,6.50
2023-10-20T03:39:35.484Z,6.80
2023-10-20T03:40:40.671Z,7.30
2023-10-20T03:41:44.228Z,6.40
2023-10-20T03:42:48.946Z,6.70
2023-10-20T03:43:55.070Z,6.40
2023-10-20T03:44:58.623Z,6.90
2023-10-20T03:46:03.853Z,5.90
2023-10-20T03:47:08.839Z,6.20
2023-10-20T03:48:12.323Z,7.10
2023-10-20T03:49:18.929Z,6.30
2023-10-20T03:50:22.860Z,6.90
2023-10-20T03:51:27.776Z,6.10
2023-10-20T03:52:30.920Z,5.80
2023-10-20T03:53:54.893Z,6.00
2023-10-20T03:54:58.950Z,6.20
2023-10-20T03:56:03.621Z,6.80
2023-10-20T03:57:07.439Z,7.00
2023-10-20T03:58:13.173Z,6.70
2023-10-20T03:59:17.135Z,6.90
2023-10-20T04:00:30.930Z,7.20
2023-10-20T04:01:34.468Z,7.60
2023-10-20T04:02:37.983Z,7.40
2023-10-20T04:03:43.826Z,8.00
2023-10-20T04:04:47.266Z,7.80
2023-10-20T04:05:51.190Z,8.40
2023-10-20T04:06:54.905Z,8.10
2023-10-20T04:07:59.424Z,8.50
2023-10-20T04:09:09.310Z,8.00
2023-10-20T04:10:12.973Z,8.10
2023-10-20T04:11:16.301Z,7.90
2023-10-20T04:12:20.119Z,8.20
2023-10-20T04:13:27.736Z,9.20
2023-10-20T04:14:30.918Z,8.40
2023-10-20T04:15:37.373Z,9.30
2023-10-20T04:16:42.228Z,9.30
2023-10-20T04:17:53.085Z,9.20
2023-10-20T04:18:59.841Z,9.10
2023-10-20T04:20:05.102Z,8.90
2023-10-20T04:21:12.128Z,8.70
2023-10-20T04:22:16.742Z,7.80
2023-10-20T04:23:21.223Z,7.40
2023-10-20T04:24:24.926Z,7.80
2023-10-20T04:25:29.688Z,7.60
2023-10-20T04:26:35.759Z,7.20
2023-10-20T04:27:53.201Z,7.60
2023-10-20T04:29:11.920Z,7.20
2023-10-20T04:30:35.591Z,7.10
2023-10-20T04:31:57.275Z,7.40
2023-10-20T04:33:19.729Z,7.60
2023-10-20T04:34:42.288Z,7.00
2023-10-20T04:36:04.740Z,7.40
2023-10-20T04:37:26.925Z,8.00
2023-10-20T04:38:48.912Z,8.20
2023-10-20T04:40:10.922Z,7.80
2023-10-20T04:41:33.675Z,7.80
2023-10-20T04:42:40.895Z,8.50
2023-10-20T04:44:04.330Z,8.20
2023-10-20T04:45:22.248Z,8.50
2023-10-20T04:46:32.013Z,8.30
2023-10-20T04:47:35.425Z,8.10
2023-10-20T04:48:57.447Z,8.10
2023-10-20T04:50:16.446Z,7.30
2023-10-20T04:51:40.076Z,7.30
2023-10-20T04:52:56.163Z,7.70
2023-10-20T04:54:11.268Z,7.30
2023-10-20T04:55:27.364Z,8.00
2023-10-20T04:56:38.782Z,7.80
2023-10-20T04:58:02.798Z,7.70
2023-10-20T04:59:11.009Z,7.30
2023-10-20T05:00:36.078Z,7.40
2023-10-20T05:01:39.735Z,8.90
2023-10-20T05:03:06.931Z,8.40
2023-10-20T05:05:26.857Z,7.80
2023-10-20T05:06:41.593Z,8.00
2023-10-20T05:07:50.996Z,8.10
2023-10-20T05:08:55.056Z,8.70
2023-10-20T05:10:00.534Z,21.50
2023-10-20T05:11:05.620Z,12.00
2023-10-20T05:12:10.103Z,8.00
2023-10-20T05:13:13.493Z,8.30
2023-10-20T05:14:18.185Z,8.00
2023-10-20T05:15:22.606Z,9.90
2023-10-20T05:16:29.403Z,10.20
2023-10-20T05:17:36.080Z,10.00
2023-10-20T05:18:40.445Z,9.80
2023-10-20T05:19:44.428Z,10.60
2023-10-20T05:20:47.860Z,10.60
2023-10-20T05:21:52.224Z,10.20
2023-10-20T05:22:57.055Z,9.10
2023-10-20T05:24:04.273Z,9.70
2023-10-20T05:25:12.601Z,9.60
2023-10-20T05:26:17.277Z,9.00
2023-10-20T05:27:20.486Z,9.10
2023-10-20T05:28:25.349Z,9.70
2023-10-20T05:29:29.240Z,8.20
2023-10-20T05:30:33.833Z,9.30
2023-10-20T05:31:37.352Z,8.70
2023-10-20T05:32:40.983Z,8.60
2023-10-20T05:33:46.725Z,9.50
2023-10-20T05:34:55.588Z,8.40
2023-10-20T05:36:02.571Z,8.60
2023-10-20T05:37:06.090Z,9.10
2023-10-20T05:38:10.358Z,9.60
2023-10-20T05:39:14.512Z,9.90
2023-10-20T05:40:18.072Z,10.10
2023-10-20T05:41:22.833Z,10.90
2023-10-20T05:42:26.756Z,9.90
2023-10-20T05:43:31.200Z,10.00
2023-10-20T05:44:34.885Z,10.10
2023-10-20T05:45:40.914Z,9.90
2023-10-20T05:46:45.108Z,10.80
2023-10-20T05:47:50.365Z,9.90
2023-10-20T05:48:55.169Z,10.60
2023-10-20T05:50:01.653Z,10.40
2023-10-20T05:51:05.942Z,11.20
2023-10-20T05:52:09.747Z,11.90
2023-10-20T05:53:13.620Z,13.40
2023-10-20T05:54:17.626Z,11.40
2023-10-20T05:55:21.525Z,11.10
2023-10-20T05:56:24.899Z,11.40
2023-10-20T05:57:29.273Z,11.10
2023-10-20T05:58:33.873Z,11.40
2023-10-20T05:59:38.811Z,10.20
2023-10-20T06:01:01.830Z,11.00
2023-10-20T06:02:08.752Z,11.00
2023-10-20T06:03:12.336Z,10.10
2023-10-20T06:04:15.750Z,10.70
2023-10-20T06:05:19.940Z,9.60
2023-10-20T06:06:23.480Z,9.70
2023-10-20T06:07:27.919Z,9.20
2023-10-20T06:08:31.755Z,9.20
2023-10-20T06:09:35.650Z,9.40
2023-10-20T06:10:39.419Z,10.60
2023-10-20T06:11:42.889Z,10.80
2023-10-20T06:12:46.122Z,11.30
2023-10-20T06:13:50.061Z,10.50
2023-10-20T06:14:53.326Z,11.60
2023-10-20T06:15:59.490Z,9.90
2023-10-20T06:17:03.464Z,9.50
2023-10-20T06:18:11.747Z,10.50
2023-10-20T06:19:17.401Z,9.90
2023-10-20T06:20:20.891Z,10.60
2023-10-20T06:21:24.463Z,10.40
2023-10-20T06:22:28.166Z,10.30
2023-10-20T06:23:32.105Z,8.90
2023-10-20T06:24:35.670Z,10.20
2023-10-20T06:25:42.876Z,9.20
2023-10-20T06:26:49.197Z,10.00
2023-10-20T06:27:52.993Z,9.50
2023-10-20T06:28:56.589Z,8.70
2023-10-20T06:30:15.802Z,9.80
2023-10-20T06:31:32.023Z,8.90
2023-10-20T06:32:46.327Z,9.20
2023-10-20T06:33:58.868Z,8.90
2023-10-20T06:35:03.232Z,8.80
2023-10-20T06:36:17.150Z,8.50
2023-10-20T06:37:36.497Z,8.70
2023-10-20T06:38:43.018Z,8.40
2023-10-20T06:39:46.699Z,9.20
2023-10-20T06:40:50.094Z,8.70
2023-10-20T06:41:53.875Z,7.90
2023-10-20T06:42:57.457Z,8.90
2023-10-20T06:44:01.219Z,8.20
2023-10-20T06:45:07.061Z,8.50
2023-10-20T06:46:10.733Z,8.10
2023-10-20T06:47:14.517Z,8.20
2023-10-20T06:48:18.020Z,8.80
2023-10-20T06:49:21.846Z,9.00
2023-10-20T06:50:25.475Z,9.00
2023-10-20T06:51:30.952Z,8.80
2023-10-20T06:52:35.759Z,8.90
2023-10-20T06:53:39.700Z,9.30
2023-10-20T06:54:43.237Z,9.40
2023-10-20T06:56:09.958Z,10.20
2023-10-20T06:57:15.953Z,10.30
2023-10-20T06:58:20.392Z,10.40
2023-10-20T06:59:26.619Z,15.40
2023-10-20T07:00:31.373Z,11.20
2023-10-20T07:01:36.181Z,20.10
2023-10-20T07:02:39.794Z,60.30
2023-10-20T07:03:45.570Z,17.80
2023-10-20T07:04:49.864Z,10.60
2023-10-20T07:05:53.420Z,11.90
2023-10-20T07:06:58.555Z,10.20
2023-10-20T07:08:02.313Z,9.60
2023-10-20T07:09:12.580Z,9.10
2023-10-20T07:10:19.261Z,9.70
2023-10-20T07:11:27.515Z,9.10
2023-10-20T07:12:30.660Z,8.90
2023-10-20T07:13:34.298Z,9.20
2023-10-20T07:14:41.303Z,9.80
2023-10-20T07:15:46.019Z,9.60
2023-10-20T07:16:49.736Z,9.40
2023-10-20T07:17:53.452Z,9.80
2023-10-20T07:18:57.398Z,11.00
2023-10-20T07:20:00.884Z,10.20
2023-10-20T07:21:04.835Z,9.70
2023-10-20T07:22:08.547Z,10.10
2023-10-20T07:23:11.669Z,11.40
2023-10-20T07:24:15.613Z,11.40
2023-10-20T07:25:20.086Z,9.50
2023-10-20T07:26:24.928Z,9.90
2023-10-20T07:27:28.444Z,10.20
2023-10-20T07:28:32.676Z,10.30
2023-10-20T07:31:00.660Z,12.30
2023-10-20T07:32:05.565Z,13.40
2023-10-20T07:33:09.149Z,13.20
2023-10-20T07:34:12.527Z,12.80
2023-10-20T07:35:16.513Z,13.50
2023-10-20T07:36:21.497Z,12.00
2023-10-20T07:37:25.093Z,11.20
2023-10-20T07:38:28.566Z,11.90
2023-10-20T07:39:34.336Z,11.40
2023-10-20T07:40:38.224Z,11.40
2023-10-20T07:41:41.611Z,11.20
2023-10-20T07:42:47.401Z,11.10
2023-10-20T07:43:51.524Z,11.40
2023-10-20T07:44:56.000Z,12.80
2023-10-20T07:45:59.379Z,11.60
2023-10-20T07:47:03.142Z,11.00
2023-10-20T07:48:11.884Z,12.30
2023-10-20T07:49:16.725Z,11.20
2023-10-20T07:50:20.358Z,10.40
2023-10-20T07:51:24.793Z,10.60
2023-10-20T07:52:29.414Z,9.80
2023-10-20T07:53:32.941Z,11.40
2023-10-20T07:54:37.376Z,11.00
2023-10-20T07:55:41.462Z,11.50
2023-10-20T07:56:44.956Z,11.10
2023-10-20T07:57:48.394Z,10.70
2023-10-20T07:58:52.816Z,11.20
2023-10-20T07:59:56.819Z,11.10
2023-10-20T08:01:01.228Z,11.30
2023-10-20T08:02:06.135Z,11.60
2023-10-20T08:03:12.125Z,11.20
2023-10-20T08:04:18.658Z,11.90
2023-10-20T08:05:25.597Z,12.00
2023-10-20T08:06:29.570Z,12.20
2023-10-20T08:07:33.205Z,12.20
2023-10-20T08:08:36.631Z,12.30
2023-10-20T08:09:41.280Z,11.90
2023-10-20T08:10:44.878Z,12.30
2023-10-20T08:11:48.136Z,11.00
2023-10-20T08:12:51.542Z,11.70
2023-10-20T08:13:56.576Z,13.40
2023-10-20T08:15:00.212Z,11.20
2023-10-20T08:16:08.412Z,12.50
2023-10-20T08:17:13.164Z,11.30
2023-10-20T08:18:17.086Z,11.10
2023-10-20T08:19:20.841Z,11.00
2023-10-20T08:20:24.424Z,10.20
2023-10-20T08:21:30.451Z,10.20
2023-10-20T08:22:33.769Z,10.30
2023-10-20T08:23:38.086Z,9.70
2023-10-20T08:24:42.061Z,9.90
2023-10-20T08:25:45.679Z,9.20
2023-10-20T08:26:50.277Z,10.00
2023-10-20T08:27:54.883Z,11.00
2023-10-20T08:28:58.298Z,10.70
2023-10-20T08:30:01.696Z,13.30
2023-10-20T08:31:10.994Z,12.80
2023-10-20T08:32:14.408Z,14.00
2023-10-20T08:33:18.527Z,12.90
2023-10-20T08:34:22.131Z,11.80
2023-10-20T08:35:26.617Z,12.30
2023-10-20T08:36:30.159Z,12.30
2023-10-20T08:37:33.486Z,11.40
2023-10-20T08:38:36.805Z,10.20
2023-10-20T08:39:40.926Z,10.90
2023-10-20T08:41:07.864Z,10.90
2023-10-20T08:42:17.717Z,9.20
2023-10-20T08:43:22.609Z,8.50
2023-10-20T08:44:27.525Z,8.30
2023-10-20T08:45:34.746Z,8.80
2023-10-20T08:46:40.809Z,8.50
2023-10-20T08:47:45.273Z,8.10
2023-10-20T08:48:49.494Z,8.60
2023-10-20T08:49:53.146Z,10.00
2023-10-20T08:51:00.245Z,9.60
2023-10-20T08:52:10.836Z,9.50
2023-10-20T08:53:15.238Z,9.00
2023-10-20T08:55:24.156Z,8.20
2023-10-20T08:56:28.391Z,7.80
2023-10-20T15:53:33.293Z,4.80
2023-10-20T15:54:39.990Z,4.90
2023-10-20T15:55:48.712Z,4.80
2023-10-20T15:57:59.260Z,4.40
2023-10-20T15:59:05.832Z,4.80
2023-10-20T16:00:15.448Z,4.80
2023-10-20T16:01:23.646Z,5.00
2023-10-20T16:02:30.476Z,5.40
2023-10-20T16:03:36.790Z,6.60
2023-10-20T16:04:45.594Z,5.60
2023-10-20T16:05:53.235Z,4.90
2023-10-20T16:07:02.075Z,5.80
2023-10-20T16:08:09.553Z,5.50
2023-10-20T16:09:19.590Z,4.60
2023-10-20T16:10:29.448Z,5.00
2023-10-20T16:11:35.923Z,6.60
2023-10-20T16:12:41.990Z,7.80
2023-10-20T16:13:47.971Z,10.50
2023-10-20T16:14:56.832Z,11.00
2023-10-20T16:16:03.481Z,9.80
2023-10-20T16:17:09.900Z,7.70
2023-10-20T16:18:16.710Z,6.60
2023-10-20T16:19:23.221Z,5.80
2023-10-20T16:20:29.526Z,5.50
2023-10-20T16:21:36.732Z,5.90
2023-10-20T16:22:43.172Z,6.30
2023-10-20T16:23:49.402Z,5.90
2023-10-20T16:24:55.919Z,5.50
2023-10-20T16:26:03.713Z,5.50
2023-10-20T16:27:09.964Z,5.90
2023-10-20T16:28:16.392Z,5.70
2023-10-20T16:29:22.705Z,6.10
2023-10-20T16:30:30.625Z,7.10
2023-10-20T16:31:37.131Z,6.50
2023-10-20T16:32:44.720Z,7.00
2023-10-20T16:33:54.799Z,6.60
2023-10-20T16:35:01.038Z,8.60
2023-10-20T16:36:10.372Z,7.80
2023-10-20T16:37:17.139Z,7.70
2023-10-20T16:38:25.480Z,10.00
2023-10-20T16:39:34.158Z,7.30
2023-10-20T16:40:41.052Z,6.50
2023-10-20T16:41:47.618Z,7.20
2023-10-20T16:42:53.574Z,4.80
2023-10-20T16:44:00.175Z,8.20
2023-10-20T16:45:12.218Z,7.30
2023-10-20T16:46:18.731Z,6.20
2023-10-20T16:47:25.169Z,6.80
2023-10-20T16:48:31.033Z,6.70
2023-10-20T16:49:37.376Z,7.10
2023-10-20T16:50:44.585Z,6.40
2023-10-20T16:51:51.199Z,6.70
2023-10-20T16:52:58.941Z,6.80
2023-10-20T16:54:05.442Z,6.30
2023-10-20T16:55:12.942Z,6.80
2023-10-20T16:56:18.740Z,5.70
2023-10-20T16:57:25.868Z,5.70
2023-10-20T16:58:33.135Z,6.10
2023-10-20T16:59:41.502Z,6.20
2023-10-20T17:00:48.429Z,6.40
2023-10-20T17:01:55.215Z,6.10
2023-10-20T17:03:02.220Z,7.70
2023-10-20T17:04:09.056Z,6.30
2023-10-20T17:05:15.363Z,5.70
2023-10-20T17:06:21.756Z,7.10
2023-10-20T17:07:30.422Z,5.80
2023-10-20T17:08:37.239Z,6.00
2023-10-20T17:09:43.576Z,10.30
2023-10-20T17:10:52.126Z,8.20
2023-10-20T17:11:58.797Z,6.70
2023-10-20T17:13:07.059Z,6.30
2023-10-20T17:14:13.890Z,6.60
2023-10-20T17:15:21.263Z,6.80
2023-10-20T17:16:30.465Z,6.60
2023-10-20T17:17:36.809Z,6.50
2023-10-20T17:18:47.838Z,6.10
2023-10-20T17:19:54.104Z,6.60
2023-10-20T17:21:08.816Z,7.90
2023-10-20T17:22:15.058Z,8.90
2023-10-20T17:23:23.075Z,9.10
2023-10-20T17:24:30.176Z,7.50
2023-10-20T17:25:36.981Z,6.10
2023-10-20T17:26:44.233Z,6.70
2023-10-20T17:27:50.348Z,8.80
2023-10-20T17:28:57.351Z,6.60
2023-10-20T17:30:03.582Z,6.40
2023-10-20T17:31:10.891Z,6.10
2023-10-20T17:32:17.192Z,5.70
2023-10-20T17:33:23.313Z,6.50
2023-10-20T17:34:32.654Z,5.50
2023-10-20T17:35:40.029Z,5.50
2023-10-20T17:36:46.881Z,5.30
2023-10-20T17:37:55.528Z,6.60
2023-10-20T17:39:05.501Z,6.20
2023-10-20T17:40:13.846Z,6.50
2023-10-20T17:41:20.215Z,6.10
2023-10-20T17:42:27.037Z,5.50
2023-10-20T17:43:34.703Z,6.10
2023-10-20T17:44:41.115Z,7.70
2023-10-20T17:45:48.158Z,7.10
2023-10-20T17:46:54.461Z,6.60
2023-10-20T17:48:05.248Z,7.40
2023-10-20T17:49:12.209Z,7.60
2023-10-20T17:50:18.892Z,6.50
2023-10-20T17:51:26.121Z,6.30
2023-10-20T17:52:32.602Z,7.30
2023-10-20T17:53:39.050Z,6.40
2023-10-20T17:54:45.905Z,6.50
2023-10-20T17:55:52.615Z,6.00
2023-10-20T17:56:59.456Z,6.10
2023-10-20T17:58:07.124Z,7.10
2023-10-20T17:59:13.715Z,5.60
2023-10-20T18:00:25.252Z,5.10
2023-10-20T18:01:31.919Z,4.80
2023-10-20T18:02:38.650Z,4.90
2023-10-20T18:03:48.554Z,5.60
2023-10-20T18:04:56.287Z,5.20
2023-10-20T18:06:10.080Z,5.80
2023-10-20T18:07:18.968Z,5.20
2023-10-20T18:08:25.349Z,6.30
2023-10-20T18:09:35.424Z,6.00
2023-10-20T18:10:47.741Z,5.90
2023-10-20T18:11:54.451Z,5.30
2023-10-20T18:13:01.733Z,5.20
2023-10-20T18:14:10.414Z,5.10
2023-10-20T18:15:23.202Z,5.10
2023-10-20T18:16:32.594Z,5.60
2023-10-20T18:17:38.780Z,5.40
2023-10-20T18:18:52.868Z,5.20
2023-10-20T18:20:01.031Z,5.00
2023-10-20T18:21:08.778Z,5.40
2023-10-20T18:22:19.186Z,5.30
2023-10-20T18:23:27.235Z,4.90
2023-10-20T18:24:35.697Z,4.70
2023-10-20T18:25:42.811Z,5.00
2023-10-20T18:26:49.440Z,5.00
2023-10-20T18:27:55.448Z,4.60
2023-10-20T18:29:04.898Z,4.70
2023-10-20T18:31:19.306Z,5.00
2023-10-20T18:32:26.413Z,4.50
2023-10-20T18:33:34.537Z,5.00
2023-10-20T18:34:41.223Z,4.90
2023-10-20T18:35:48.201Z,5.00
2023-10-20T18:36:56.864Z,5.00
2023-10-20T18:38:03.112Z,4.20
2023-10-20T18:39:17.306Z,4.60
2023-10-20T18:40:27.362Z,4.40
2023-10-20T18:41:34.200Z,4.30
2023-10-20T18:42:40.792Z,4.80
2023-10-20T18:43:51.011Z,4.60
2023-10-20T18:44:57.255Z,4.90
2023-10-20T18:46:06.542Z,4.90
2023-10-20T18:47:13.100Z,4.40
2023-10-20T18:48:19.293Z,4.70
2023-10-20T18:49:27.041Z,4.90
2023-10-20T18:50:38.118Z,4.80
2023-10-20T18:51:46.119Z,5.20
2023-10-20T18:52:52.769Z,4.50
2023-10-20T18:53:58.981Z,4.80
2023-10-20T18:55:09.031Z,4.40
2023-10-20T18:56:16.353Z,5.10
2023-10-20T18:57:22.172Z,4.50
2023-10-20T18:58:28.279Z,4.70
2023-10-20T18:59:34.718Z,5.10
2023-10-20T19:00:41.649Z,4.40
2023-10-20T19:01:49.621Z,4.60
2023-10-20T19:02:56.037Z,4.00
2023-10-20T19:04:02.790Z,4.30
2023-10-20T19:05:13.888Z,3.60
2023-10-20T19:06:21.543Z,4.10
2023-10-20T19:07:27.888Z,4.10
2023-10-20T19:08:37.477Z,3.50
2023-10-20T19:09:44.073Z,3.90
2023-10-20T19:10:51.058Z,4.10
2023-10-20T19:11:57.563Z,3.30
2023-10-20T19:13:05.573Z,3.40
2023-10-20T19:14:15.664Z,3.20
2023-10-20T19:15:22.307Z,3.70
2023-10-20T19:16:34.068Z,3.30
2023-10-20T19:17:40.006Z,3.20
2023-10-20T19:18:46.789Z,4.00
2023-10-20T19:19:55.380Z,3.70
2023-10-20T19:22:07.810Z,3.00
2023-10-20T19:23:16.120Z,4.00
2023-10-20T19:24:26.060Z,3.20
2023-10-20T19:26:38.381Z,2.50
2023-10-20T19:27:45.200Z,3.00
2023-10-20T19:28:53.497Z,3.00
2023-10-20T19:30:00.440Z,2.80
2023-10-20T19:31:09.992Z,3.30
2023-10-20T19:32:17.378Z,2.70
2023-10-20T19:33:24.141Z,3.60
2023-10-20T19:34:32.770Z,2.50
2023-10-20T19:35:41.927Z,2.60
2023-10-20T19:36:48.942Z,2.40
